Archival Weather

Chicago O'Hare International

Chicago, Illinois (KORD)

Report from: Tuesday, August 16, 2022 8:51 PM CDT
Current time: Saturday, July 13, 2024 8:26 PM CDT

Current weather – Weather history – Daily summaries
Weather forecast

Temperature21.1°C (70.0°F)
Dew point11.1°C (52.0°F)
Winds 9 kts (4.6 m/s, 10.4 mph) North-Northeast (20°)
Visibility10 mi. (16.1 km)
Clouds Sky clear
Altimeter30.11 in.Hg (1020 mB)
Relative humidity53 %
Density altitude699 ft. (213 m)
Sea-level pressure101.9 kPa (1019 mB, 30.10 in.Hg)
Remarks Automated weather observing station with precipitation discriminator
Flight conditions Visual Meteorological Conditions
Raw dataKORD 170151Z 02009KT 10SM CLR 21/11 A3011 RMK AO2 SLP192 T02110111
An error has occurred. This application may no longer respond until reloaded. Reload 🗙